Time;durP1;ratioP1;P1;durP2;ratioP2;P2;SDS_P1;SDS_P2;PMS_P1;PMS_P2;Temp;Humidity;BMP_temperature;BMP_pressure;BME280_temperature;BME280_humidity;BME280_pressure;Samples;Min_cycle;Max_cycle;Signal;HPM_P1;HPM_P2
2021/03/17 00:02:14;;;;;;;18.17;17.15;;;5.40;91.60;;;;;;5053090;28;20220;-77
2021/03/17 00:04:40;;;;;;;17.48;16.58;;;5.30;91.20;;;;;;5053221;28;20198;-77
2021/03/17 00:07:06;;;;;;;19.00;18.00;;;5.20;90.60;;;;;;5052907;28;20331;-77
2021/03/17 00:09:33;;;;;;;19.08;18.02;;;5.30;90.20;;;;;;5053147;28;20274;-77
2021/03/17 00:11:59;;;;;;;17.92;17.02;;;5.40;88.80;;;;;;5053010;28;20681;-77
2021/03/17 00:14:26;;;;;;;16.70;15.75;;;5.40;93.40;;;;;;5053117;28;20258;-77
2021/03/17 00:16:53;;;;;;;16.50;15.60;;;5.40;93.90;;;;;;5052943;28;20229;-77
2021/03/17 00:19:19;;;;;;;17.58;16.67;;;5.40;93.30;;;;;;5053149;28;20220;-77
2021/03/17 00:21:46;;;;;;;18.10;17.20;;;5.40;92.10;;;;;;5053058;28;20203;-77
2021/03/17 00:24:13;;;;;;;18.38;17.48;;;5.40;90.40;;;;;;5052934;28;20659;-77
2021/03/17 00:26:39;;;;;;;19.00;18.00;;;5.30;90.30;;;;;;5052640;28;20198;-77
2021/03/17 00:29:06;;;;;;;20.50;19.40;;;5.40;89.50;;;;;;5052944;28;20553;-77
2021/03/17 00:31:32;;;;;;;18.48;17.48;;;5.50;88.30;;;;;;5052925;28;20291;-77
2021/03/17 00:33:59;;;;;;;18.60;17.60;;;5.40;89.30;;;;;;5052893;28;20200;-77
2021/03/17 00:36:25;;;;;;;18.70;17.80;;;5.40;89.10;;;;;;5052642;28;20200;-77
2021/03/17 00:38:52;;;;;;;16.88;15.98;;;5.40;88.40;;;;;;5052591;28;20239;-77
2021/03/17 00:41:18;;;;;;;17.40;16.50;;;5.40;90.50;;;;;;5052608;28;20202;-77
2021/03/17 00:43:44;;;;;;;17.50;16.65;;;5.50;91.10;;;;;;5052599;28;20217;-77
2021/03/17 00:46:11;;;;;;;17.92;17.02;;;5.40;89.20;;;;;;5052681;28;20200;-77
2021/03/17 00:48:37;;;;;;;18.17;17.27;;;5.40;88.50;;;;;;5052371;28;20232;-77
2021/03/17 00:51:05;;;;;;;18.42;17.42;;;5.30;88.50;;;;;;5052414;28;20197;-77
2021/03/17 00:53:31;;;;;;;17.80;17.00;;;5.20;88.40;;;;;;5052531;28;20222;-77
2021/03/17 00:55:57;;;;;;;20.08;18.95;;;5.30;88.80;;;;;;5052022;28;20314;-77
2021/03/17 00:58:26;;;;;;;18.40;17.40;;;5.40;88.50;;;;;;5052328;28;20200;-77
2021/03/17 01:00:52;;;;;;;19.10;18.10;;;5.40;89.70;;;;;;5052574;28;20192;-77
2021/03/17 01:03:18;;;;;;;19.83;18.73;;;5.40;87.80;;;;;;5054969;28;20222;-77
2021/03/17 01:05:45;;;;;;;20.00;18.90;;;5.40;87.20;;;;;;5056361;28;20207;-77
2021/03/17 01:08:13;;;;;;;19.02;17.95;;;5.40;86.80;;;;;;5056327;28;20211;-77
2021/03/17 01:10:43;;;;;;;19.35;18.33;;;5.40;86.20;;;;;;5056532;28;20200;-77
2021/03/17 01:13:11;;;;;;;18.08;17.17;;;5.20;86.80;;;;;;5056611;28;20224;-77
2021/03/17 01:15:38;;;;;;;46.92;20.33;;;5.20;88.60;;;;;;5056292;28;20200;-76
2021/03/17 01:18:05;;;;;;;19.63;18.52;;;5.20;89.70;;;;;;5056499;28;20622;-77
2021/03/17 01:20:33;;;;;;;17.98;16.98;;;5.40;89.10;;;;;;5056209;28;20213;-77
2021/03/17 01:23:00;;;;;;;19.08;17.98;;;5.30;91.30;;;;;;5056099;28;20273;-78
2021/03/17 01:25:30;;;;;;;18.08;17.08;;;5.20;90.20;;;;;;5056192;28;20561;-77
2021/03/17 01:27:57;;;;;;;18.98;17.98;;;5.20;89.80;;;;;;5056307;28;20192;-77
2021/03/17 01:30:25;;;;;;;18.80;17.80;;;5.10;89.80;;;;;;5056204;28;20216;-77
2021/03/17 01:32:52;;;;;;;20.05;18.80;;;5.10;89.60;;;;;;5056262;28;20196;-77
2021/03/17 01:35:19;;;;;;;155.52;30.90;;;5.10;90.10;;;;;;5055973;28;20203;-77
2021/03/17 01:37:46;;;;;;;300.25;41.65;;;5.10;93.40;;;;;;5055881;28;20262;-77
2021/03/17 01:40:14;;;;;;;18.55;17.45;;;5.20;95.30;;;;;;5055886;28;20294;-77
2021/03/17 01:42:42;;;;;;;17.90;16.88;;;5.10;93.60;;;;;;5055788;28;20582;-77
2021/03/17 01:45:11;;;;;;;17.92;16.83;;;5.20;93.10;;;;;;5055895;28;20663;-77
2021/03/17 01:47:38;;;;;;;18.70;17.67;;;5.20;91.60;;;;;;5055632;28;20204;-77
2021/03/17 01:50:08;;;;;;;20.55;18.77;;;5.10;91.40;;;;;;5055286;28;20217;-77
2021/03/17 01:52:35;;;;;;;632.38;78.93;;;5.20;91.30;;;;;;5056094;28;20199;-77
2021/03/17 01:55:01;;;;;;;17.75;16.83;;;5.20;92.10;;;;;;5055471;28;20205;-77
2021/03/17 01:57:28;;;;;;;1560.53;221.15;;;5.20;92.70;;;;;;5055453;28;20330;-77
2021/03/17 01:59:55;;;;;;;287.05;41.22;;;5.20;94.30;;;;;;5055588;28;20224;-77
2021/03/17 02:02:22;;;;;;;16.20;15.30;;;5.20;98.50;;;;;;5055393;28;20227;-77
2021/03/17 02:04:48;;;;;;;18.17;17.00;;;5.20;95.90;;;;;;5055624;28;20562;-77
2021/03/17 02:07:14;;;;;;;17.38;16.40;;;5.20;94.00;;;;;;5055187;28;20202;-77
2021/03/17 02:09:41;;;;;;;18.77;17.67;;;5.20;92.60;;;;;;5055505;28;20295;-77
2021/03/17 02:12:19;;;;;;;166.63;32.95;;;5.20;92.70;;;;;;5055509;28;20204;-77
2021/03/17 02:14:51;;;;;;;18.50;17.40;;;5.20;92.30;;;;;;5055335;28;20203;-77
2021/03/17 02:17:26;;;;;;;169.98;30.80;;;5.20;93.70;;;;;;5061794;28;20262;-77
2021/03/17 02:20:26;;;;;;;207.35;35.47;;;5.20;92.90;;;;;;5055425;28;20223;-77
2021/03/17 02:22:58;;;;;;;19.52;18.42;;;5.20;92.70;;;;;;5055116;28;20213;-77
2021/03/17 02:26:05;;;;;;;19.10;18.08;;;5.00;92.10;;;;;;5055236;28;20201;-76
2021/03/17 02:28:46;;;;;;;20.00;18.90;;;5.20;91.70;;;;;;5055101;28;20217;-77
2021/03/17 02:31:45;;;;;;;19.05;17.95;;;5.20;90.60;;;;;;5055252;28;20248;-77
2021/03/17 02:34:15;;;;;;;20.60;19.40;;;5.20;91.60;;;;;;5055039;28;20198;-77
2021/03/17 02:36:46;;;;;;;19.23;18.00;;;5.10;91.30;;;;;;5054907;28;20199;-77
2021/03/17 02:39:17;;;;;;;456.45;66.97;;;5.10;96.70;;;;;;5054946;28;20273;-77
2021/03/17 02:41:48;;;;;;;19.48;18.35;;;5.20;94.10;;;;;;5054973;28;20192;-77
2021/03/17 02:44:18;;;;;;;20.02;18.83;;;5.10;94.10;;;;;;5054748;28;20358;-77
2021/03/17 02:46:46;;;;;;;19.73;18.58;;;5.20;92.70;;;;;;5054893;28;20197;-77
2021/03/17 02:49:17;;;;;;;19.88;18.88;;;5.10;90.10;;;;;;5054708;28;20223;-77
2021/03/17 02:51:48;;;;;;;20.25;19.08;;;5.10;90.20;;;;;;5055146;28;20197;-77
2021/03/17 02:54:18;;;;;;;19.20;18.15;;;5.10;88.70;;;;;;5056242;28;20192;-77
2021/03/17 02:56:48;;;;;;;20.98;19.77;;;5.10;88.10;;;;;;5060150;28;20197;-77
2021/03/17 02:59:17;;;;;;;32.33;20.90;;;5.00;88.40;;;;;;5058688;28;20226;-77
2021/03/17 03:01:45;;;;;;;19.30;18.30;;;5.10;88.90;;;;;;5054553;28;20197;-76
2021/03/17 03:04:13;;;;;;;19.48;18.38;;;5.20;87.40;;;;;;5054548;28;20339;-77
2021/03/17 03:06:41;;;;;;;19.40;18.30;;;5.20;87.20;;;;;;5054227;28;20204;-77
2021/03/17 03:09:09;;;;;;;18.60;17.70;;;5.00;86.90;;;;;;5054176;28;20238;-77
2021/03/17 03:11:36;;;;;;;18.50;17.50;;;4.80;88.00;;;;;;5054206;28;20193;-77
2021/03/17 03:14:04;;;;;;;18.58;17.58;;;4.90;88.30;;;;;;5054522;28;20193;-77
2021/03/17 03:16:32;;;;;;;18.80;17.85;;;4.90;88.50;;;;;;5054368;28;20185;-77
2021/03/17 03:19:01;;;;;;;17.77;16.88;;;4.80;88.00;;;;;;5054092;28;20223;-76
2021/03/17 03:21:28;;;;;;;18.25;17.35;;;4.60;88.70;;;;;;5054142;28;20204;-76
2021/03/17 03:23:57;;;;;;;20.45;19.45;;;4.70;88.70;;;;;;5053993;28;20233;-76
2021/03/17 03:26:25;;;;;;;18.00;17.08;;;4.70;88.60;;;;;;5052983;28;20193;-76
2021/03/17 03:28:53;;;;;;;18.23;17.23;;;4.80;88.40;;;;;;5053997;28;20248;-77
2021/03/17 03:31:20;;;;;;;18.65;17.65;;;4.80;88.50;;;;;;5053875;28;20665;-76
2021/03/17 03:33:46;;;;;;;19.42;18.33;;;4.80;89.00;;;;;;5053857;28;20197;-76
2021/03/17 03:36:12;;;;;;;18.10;17.20;;;4.90;88.40;;;;;;5053633;28;20192;-77
2021/03/17 03:38:40;;;;;;;17.35;16.45;;;4.90;88.30;;;;;;5053729;28;20222;-77
2021/03/17 03:41:06;;;;;;;19.88;18.85;;;4.80;88.80;;;;;;5053843;28;20193;-77
2021/03/17 03:43:33;;;;;;;19.88;18.77;;;4.70;88.70;;;;;;5053606;28;20227;-77
2021/03/17 03:46:00;;;;;;;19.58;18.58;;;4.80;88.50;;;;;;5053515;28;20204;-77
2021/03/17 03:48:26;;;;;;;19.95;18.85;;;4.80;88.20;;;;;;5053541;28;20196;-77
2021/03/17 03:50:54;;;;;;;20.13;18.98;;;4.70;88.40;;;;;;5053103;28;20291;-77
2021/03/17 03:53:45;;;;;;;18.98;17.98;;;4.70;88.40;;;;;;5053356;28;20203;-77
2021/03/17 03:56:16;;;;;;;19.42;18.10;;;4.60;88.30;;;;;;5053204;28;20196;-77
2021/03/17 03:58:47;;;;;;;19.35;18.25;;;4.50;89.10;;;;;;5053282;28;20637;-77
2021/03/17 04:01:18;;;;;;;20.10;19.00;;;4.50;89.10;;;;;;5053391;28;20234;-77
2021/03/17 04:03:52;;;;;;;18.85;17.85;;;4.50;89.50;;;;;;5053208;28;20212;-77
2021/03/17 04:06:19;;;;;;;19.55;18.45;;;4.40;89.40;;;;;;5053375;28;20196;-77
2021/03/17 04:08:49;;;;;;;18.90;17.65;;;4.50;89.30;;;;;;5053106;28;20286;-77
2021/03/17 04:11:17;;;;;;;19.70;18.60;;;4.40;89.30;;;;;;5053526;28;20189;-78
2021/03/17 04:13:46;;;;;;;18.60;17.60;;;4.50;89.40;;;;;;5053085;28;20193;-77
2021/03/17 04:16:14;;;;;;;20.98;19.83;;;4.50;90.00;;;;;;5053031;28;20208;-77
2021/03/17 04:18:44;;;;;;;21.00;19.73;;;4.40;89.50;;;;;;5053067;28;20736;-77
2021/03/17 04:21:17;;;;;;;19.50;18.45;;;4.40;89.90;;;;;;5053034;28;20257;-77
2021/03/17 04:23:46;;;;;;;23.25;21.95;;;4.40;89.90;;;;;;5052911;28;20231;-77
2021/03/17 04:26:13;;;;;;;19.73;18.63;;;4.40;90.00;;;;;;5052792;28;20200;-77
2021/03/17 04:28:42;;;;;;;19.55;18.45;;;4.40;89.90;;;;;;5052921;28;20217;-76
2021/03/17 04:31:09;;;;;;;20.20;19.10;;;4.40;89.80;;;;;;5052848;28;20205;-77
2021/03/17 04:33:38;;;;;;;20.17;18.98;;;4.30;89.90;;;;;;5052749;28;20225;-77
2021/03/17 04:36:06;;;;;;;20.15;19.00;;;4.50;89.80;;;;;;5052478;28;20550;-77
2021/03/17 04:38:34;;;;;;;21.48;20.17;;;4.50;89.50;;;;;;5052631;28;20296;-77
2021/03/17 04:41:02;;;;;;;21.60;20.30;;;4.40;89.60;;;;;;5052616;28;20212;-77
2021/03/17 04:43:29;;;;;;;21.65;20.35;;;4.30;89.90;;;;;;5052714;28;20571;-77
2021/03/17 04:45:56;;;;;;;22.60;21.10;;;4.30;89.90;;;;;;5052482;28;20272;-77
2021/03/17 04:48:24;;;;;;;24.05;22.55;;;4.30;90.20;;;;;;5052737;28;20246;-77
2021/03/17 04:50:51;;;;;;;21.70;20.35;;;4.20;90.80;;;;;;5052269;28;20192;-77
2021/03/17 04:53:18;;;;;;;22.25;20.95;;;4.20;91.10;;;;;;5052442;28;20572;-77
2021/03/17 04:55:44;;;;;;;21.83;20.52;;;4.20;91.10;;;;;;5052174;28;20196;-77
2021/03/17 04:58:15;;;;;;;23.20;21.50;;;4.30;90.80;;;;;;5052577;28;20662;-77
2021/03/17 05:00:46;;;;;;;22.10;20.80;;;4.30;90.80;;;;;;5052599;28;20578;-77
2021/03/17 05:03:14;;;;;;;21.90;20.40;;;4.30;91.00;;;;;;5052406;28;20217;-77
2021/03/17 05:05:43;;;;;;;23.40;21.90;;;4.30;91.10;;;;;;5052304;28;20653;-77
2021/03/17 05:08:10;;;;;;;22.20;20.77;;;4.30;91.20;;;;;;5052424;28;20240;-77
2021/03/17 05:10:38;;;;;;;23.00;21.60;;;4.40;91.40;;;;;;5052574;28;20208;-77
2021/03/17 05:13:08;;;;;;;23.23;21.73;;;4.40;91.00;;;;;;5052574;28;20197;-77
2021/03/17 05:15:36;;;;;;;23.25;21.75;;;4.40;91.30;;;;;;5052206;28;20200;-76
2021/03/17 05:18:03;;;;;;;24.88;21.73;;;4.50;90.90;;;;;;5052361;28;20531;-77
2021/03/17 05:20:30;;;;;;;23.08;21.63;;;4.50;90.60;;;;;;5052465;28;20307;-77
2021/03/17 05:22:58;;;;;;;22.77;21.27;;;4.50;91.00;;;;;;5052260;28;20220;-77
2021/03/17 05:25:28;;;;;;;23.35;21.85;;;4.60;90.70;;;;;;5052268;28;20196;-76
2021/03/17 05:27:56;;;;;;;24.38;22.77;;;4.70;90.00;;;;;;5052250;28;20204;-77
2021/03/17 05:30:25;;;;;;;25.05;23.45;;;4.70;89.70;;;;;;5052168;28;20701;-76
2021/03/17 05:32:54;;;;;;;24.80;23.20;;;4.40;90.10;;;;;;5052189;28;20193;-77
2021/03/17 05:35:20;;;;;;;25.17;23.48;;;4.40;90.40;;;;;;5052186;28;20254;-77
2021/03/17 05:37:46;;;;;;;25.10;23.30;;;4.40;90.40;;;;;;5051974;28;20590;-76
2021/03/17 05:40:15;;;;;;;24.08;22.55;;;4.40;90.50;;;;;;5052204;28;20280;-77
2021/03/17 05:42:43;;;;;;;25.17;23.52;;;4.40;90.50;;;;;;5052098;28;20217;-77
2021/03/17 05:45:12;;;;;;;24.55;22.80;;;4.40;90.80;;;;;;5052084;28;20200;-77
2021/03/17 05:47:42;;;;;;;25.95;24.13;;;4.40;90.40;;;;;;5051813;28;20254;-77
2021/03/17 05:50:12;;;;;;;25.67;23.63;;;4.30;90.30;;;;;;5055581;28;20216;-77
2021/03/17 05:52:40;;;;;;;26.10;24.13;;;4.20;91.30;;;;;;5055769;28;20201;-76
2021/03/17 05:55:08;;;;;;;54.78;28.30;;;4.20;91.90;;;;;;5055589;28;20193;-77
2021/03/17 05:57:35;;;;;;;26.20;24.40;;;4.40;91.70;;;;;;5055602;28;20227;-77
2021/03/17 06:00:01;;;;;;;26.58;24.45;;;4.30;91.30;;;;;;5055499;28;20216;-77
2021/03/17 06:02:28;;;;;;;26.98;24.88;;;4.30;91.20;;;;;;5055472;28;20287;-77
2021/03/17 06:04:55;;;;;;;28.02;25.90;;;4.30;91.10;;;;;;5055524;28;20223;-77
2021/03/17 06:07:24;;;;;;;28.40;26.10;;;4.20;91.60;;;;;;5057027;28;20804;-77
2021/03/17 06:09:52;;;;;;;26.75;24.75;;;4.10;92.00;;;;;;5058153;28;20227;-77
2021/03/17 06:12:22;;;;;;;26.88;24.73;;;4.20;92.00;;;;;;5055417;28;20196;-77
2021/03/17 06:14:51;;;;;;;29.20;26.90;;;4.30;91.80;;;;;;5055483;28;20204;-76
2021/03/17 06:17:22;;;;;;;28.42;25.92;;;4.30;92.00;;;;;;5055128;28;20662;-76
2021/03/17 06:19:55;;;;;;;30.02;27.65;;;4.20;91.60;;;;;;5055376;28;20220;-77
2021/03/17 06:22:23;;;;;;;26.80;24.67;;;4.20;92.30;;;;;;5057371;22;20233;-77
2021/03/17 06:24:49;;;;;;;27.80;25.50;;;4.30;91.90;;;;;;5035398;28;20199;-77
2021/03/17 06:27:16;;;;;;;28.40;25.90;;;4.40;92.00;;;;;;5034892;28;20229;-76
2021/03/17 06:29:42;;;;;;;28.67;26.27;;;4.20;91.60;;;;;;5035188;28;20236;-77
2021/03/17 06:32:10;;;;;;;28.92;26.73;;;4.30;92.00;;;;;;5035229;28;20209;-76
2021/03/17 06:34:45;;;;;;;30.17;27.67;;;4.40;91.70;;;;;;5035300;28;20220;-76
2021/03/17 06:37:11;;;;;;;84.25;28.65;;;4.40;91.70;;;;;;5036453;28;20205;-76
2021/03/17 06:39:39;;;;;;;29.23;26.80;;;4.50;91.40;;;;;;5036331;28;20221;-77
2021/03/17 06:42:06;;;;;;;28.88;26.25;;;4.60;91.00;;;;;;5035212;28;20288;-76
2021/03/17 06:44:32;;;;;;;29.05;26.70;;;4.60;91.00;;;;;;5034903;28;20344;-76
2021/03/17 06:47:12;;;;;;;57.83;28.15;;;4.70;91.40;;;;;;5034739;28;20288;-77
2021/03/17 06:49:40;;;;;;;28.45;26.15;;;4.70;91.40;;;;;;5034512;28;20248;-76
2021/03/17 06:52:25;;;;;;;29.13;26.73;;;4.70;90.70;;;;;;5034972;28;20308;-77
2021/03/17 06:55:16;;;;;;;31.33;28.80;;;4.90;89.90;;;;;;5024697;28;20246;-76
2021/03/17 06:57:45;;;;;;;30.58;27.98;;;4.70;90.50;;;;;;5034644;28;20244;-77
2021/03/17 07:00:26;;;;;;;128.90;36.40;;;4.60;90.90;;;;;;5034752;28;20221;-76
2021/03/17 07:02:54;;;;;;;28.98;26.48;;;4.70;91.00;;;;;;5034499;28;20333;-77
2021/03/17 07:05:21;;;;;;;169.65;39.17;;;4.70;91.70;;;;;;5034621;28;20197;-76
2021/03/17 07:07:49;;;;;;;29.52;26.70;;;4.80;92.30;;;;;;5034416;28;20662;-77
2021/03/17 07:10:27;;;;;;;30.08;27.48;;;4.90;91.00;;;;;;5034384;28;20217;-76
2021/03/17 07:12:54;;;;;;;28.77;26.40;;;4.90;89.40;;;;;;5034508;28;20579;-77
2021/03/17 07:15:21;;;;;;;27.67;25.50;;;4.80;89.70;;;;;;5034303;28;20197;-76
2021/03/17 07:17:48;;;;;;;28.15;25.90;;;4.90;89.10;;;;;;5034251;28;20201;-77
2021/03/17 07:20:34;;;;;;;27.30;25.20;;;4.80;89.60;;;;;;5034304;28;20220;-77
2021/03/17 07:23:27;;;;;;;27.95;25.85;;;5.00;89.70;;;;;;5034044;28;20256;-76
2021/03/17 07:26:16;;;;;;;27.48;25.48;;;5.10;88.80;;;;;;5034131;28;20208;-77
2021/03/17 07:29:04;;;;;;;28.25;26.00;;;5.20;87.90;;;;;;5034378;28;20245;-77
2021/03/17 07:31:32;;;;;;;28.45;26.25;;;5.30;87.70;;;;;;5034080;28;20197;-76
2021/03/17 07:34:11;;;;;;;27.30;25.38;;;5.40;87.10;;;;;;5034009;28;20251;-77
2021/03/17 07:36:40;;;;;;;26.73;24.77;;;5.30;87.20;;;;;;5033719;28;20550;-77
2021/03/17 07:39:10;;;;;;;27.30;25.30;;;5.40;87.40;;;;;;5033954;28;20225;-77
2021/03/17 07:41:39;;;;;;;27.83;25.38;;;5.50;87.10;;;;;;5034149;28;20233;-77
2021/03/17 07:44:07;;;;;;;25.98;24.17;;;5.40;85.80;;;;;;5033878;28;20744;-77
2021/03/17 07:46:34;;;;;;;28.48;26.48;;;5.30;86.80;;;;;;5033661;28;20637;-76
2021/03/17 07:49:02;;;;;;;28.55;26.55;;;5.30;86.60;;;;;;5033656;28;20225;-76
2021/03/17 07:51:29;;;;;;;28.67;26.42;;;5.40;87.00;;;;;;5033849;28;20617;-77
2021/03/17 07:53:58;;;;;;;27.77;25.50;;;5.20;86.10;;;;;;5033800;28;20228;-77
2021/03/17 07:56:25;;;;;;;26.75;24.85;;;5.40;87.00;;;;;;5033308;28;20208;-77
2021/03/17 07:58:54;;;;;;;29.92;27.80;;;5.40;86.20;;;;;;5033519;28;20226;-77
2021/03/17 08:01:22;;;;;;;31.63;29.38;;;5.60;85.30;;;;;;5033659;28;20565;-77
2021/03/17 08:03:49;;;;;;;29.88;27.60;;;5.80;84.30;;;;;;5033578;28;20219;-77
2021/03/17 08:06:17;;;;;;;29.65;27.08;;;5.90;84.10;;;;;;5033405;28;20201;-77
2021/03/17 08:08:44;;;;;;;26.02;24.33;;;6.10;83.10;;;;;;5033566;28;20231;-77
2021/03/17 08:11:13;;;;;;;28.40;26.50;;;6.20;79.50;;;;;;5033008;28;20680;-77
2021/03/17 08:13:43;;;;;;;25.40;23.85;;;6.10;77.10;;;;;;5033337;28;20688;-77
2021/03/17 08:16:12;;;;;;;25.88;24.25;;;6.00;75.10;;;;;;5033406;28;20197;-77
2021/03/17 08:18:40;;;;;;;26.83;25.10;;;6.10;75.00;;;;;;5033321;28;20217;-77
2021/03/17 08:21:07;;;;;;;24.25;22.80;;;6.20;75.60;;;;;;5033373;28;20306;-77
2021/03/17 08:23:41;;;;;;;28.23;26.60;;;6.50;74.20;;;;;;5037828;28;20230;-77
2021/03/17 08:26:09;;;;;;;27.92;25.95;;;6.80;74.00;;;;;;5039044;28;20250;-77
2021/03/17 08:28:47;;;;;;;27.70;25.90;;;6.90;74.00;;;;;;5035404;28;20567;-77
2021/03/17 08:31:50;;;;;;;29.35;27.48;;;7.10;73.40;;;;;;5033105;28;20258;-77
2021/03/17 08:34:22;;;;;;;29.15;27.13;;;7.20;71.20;;;;;;5036435;28;20664;-76
2021/03/17 08:36:49;;;;;;;29.90;27.80;;;7.40;70.50;;;;;;5032993;28;20200;-76
2021/03/17 08:39:43;;;;;;;28.98;27.08;;;7.40;70.70;;;;;;5032939;28;20213;-77
2021/03/17 08:42:10;;;;;;;30.10;28.08;;;7.20;72.20;;;;;;5032874;28;20205;-77
2021/03/17 08:44:45;;;;;;;30.25;28.27;;;7.20;73.00;;;;;;5032881;28;20221;-77
2021/03/17 08:47:21;;;;;;;31.35;29.10;;;7.20;73.50;;;;;;5032723;28;20210;-77
2021/03/17 08:49:49;;;;;;;30.70;28.40;;;7.20;74.20;;;;;;5032553;28;20221;-76
2021/03/17 08:52:18;;;;;;;30.55;28.35;;;7.20;74.50;;;;;;5032790;28;20205;-76
2021/03/17 08:55:00;;;;;;;31.90;29.52;;;6.80;76.00;;;;;;5032581;28;20284;-76
2021/03/17 08:57:53;;;;;;;30.38;28.27;;;6.80;76.50;;;;;;5032652;28;20270;-77
2021/03/17 09:01:01;;;;;;;30.30;28.10;;;6.80;73.80;;;;;;5032893;28;20274;-77
2021/03/17 09:03:39;;;;;;;33.25;30.67;;;7.10;73.10;;;;;;4996099;28;20278;-77
2021/03/17 09:06:11;;;;;;;30.77;28.48;;;7.30;70.50;;;;;;5032714;28;20673;-77
2021/03/17 09:08:59;;;;;;;42.30;30.50;;;7.50;72.50;;;;;;5032993;28;20219;-77
2021/03/17 09:11:57;;;;;;;27.67;25.92;;;7.70;77.60;;;;;;5033292;28;20201;-77
2021/03/17 09:14:27;;;;;;;28.60;26.80;;;7.70;68.50;;;;;;5032788;28;20221;-77
2021/03/17 09:17:26;;;;;;;29.95;27.85;;;7.60;69.20;;;;;;5032456;28;20208;-77
2021/03/17 09:20:25;;;;;;;29.13;27.23;;;7.40;70.20;;;;;;5032475;28;20653;-77
2021/03/17 09:23:13;;;;;;;29.23;27.25;;;7.50;70.70;;;;;;5032461;28;20233;-77
2021/03/17 09:25:45;;;;;;;29.20;27.20;;;7.80;71.00;;;;;;5036333;28;20784;-76
2021/03/17 09:28:18;;;;;;;28.73;26.67;;;8.00;72.30;;;;;;5036437;28;20201;-77
2021/03/17 09:30:48;;;;;;;28.83;26.85;;;8.20;74.40;;;;;;5036468;28;20197;-77
2021/03/17 09:33:17;;;;;;;28.73;26.92;;;8.40;73.40;;;;;;5036400;28;20199;-77
2021/03/17 09:35:52;;;;;;;29.00;27.00;;;8.70;67.70;;;;;;5036045;28;20197;-77
2021/03/17 09:38:19;;;;;;;27.23;25.52;;;8.90;66.10;;;;;;5036082;28;20201;-77
2021/03/17 09:40:58;;;;;;;27.63;25.90;;;8.70;62.40;;;;;;5036141;28;20658;-77
2021/03/17 09:43:37;;;;;;;28.30;26.70;;;8.70;60.60;;;;;;5036213;28;20220;-77
2021/03/17 09:46:19;;;;;;;28.33;26.58;;;8.20;62.70;;;;;;5035941;28;20284;-77
2021/03/17 09:48:46;;;;;;;26.90;25.20;;;8.10;63.60;;;;;;5036304;28;20221;-76
2021/03/17 09:51:17;;;;;;;28.35;26.35;;;8.00;63.60;;;;;;5035689;28;20201;-76
2021/03/17 09:53:45;;;;;;;27.48;25.58;;;7.80;62.70;;;;;;5036105;28;20197;-77
2021/03/17 09:56:12;;;;;;;27.75;26.02;;;7.20;65.00;;;;;;5035739;28;20211;-76
2021/03/17 09:58:39;;;;;;;29.30;27.55;;;7.30;66.10;;;;;;5035801;28;20308;-77
2021/03/17 10:01:10;;;;;;;27.17;25.27;;;7.60;65.10;;;;;;5035864;28;20202;-77
2021/03/17 10:03:36;;;;;;;26.60;24.90;;;7.70;63.20;;;;;;5035531;28;20251;-77
2021/03/17 10:06:03;;;;;;;27.73;25.92;;;7.90;63.70;;;;;;5035680;28;20197;-76
2021/03/17 10:08:33;;;;;;;26.27;24.75;;;8.00;62.00;;;;;;5035651;28;20205;-77
2021/03/17 10:11:01;;;;;;;27.40;25.65;;;8.20;62.00;;;;;;5035692;28;20205;-77
2021/03/17 10:13:33;;;;;;;27.48;25.77;;;8.30;61.50;;;;;;5035546;28;20229;-77
2021/03/17 10:16:00;;;;;;;28.92;26.98;;;8.40;61.80;;;;;;5035447;28;20539;-76
2021/03/17 10:18:27;;;;;;;26.15;24.50;;;8.50;61.60;;;;;;5035422;28;20197;-77
2021/03/17 10:20:55;;;;;;;26.60;25.00;;;8.60;60.40;;;;;;5035530;28;20208;-77
2021/03/17 10:23:22;;;;;;;28.33;26.52;;;8.70;60.20;;;;;;5035309;28;20244;-77
2021/03/17 10:25:49;;;;;;;27.48;25.88;;;8.60;60.50;;;;;;5035348;28;20193;-76
2021/03/17 10:28:16;;;;;;;27.20;25.55;;;8.50;61.00;;;;;;5036956;28;20650;-77
2021/03/17 10:30:46;;;;;;;28.90;27.00;;;8.40;60.60;;;;;;5037808;28;20204;-77
2021/03/17 10:33:13;;;;;;;27.90;26.08;;;8.40;61.50;;;;;;5035347;28;20295;-77
2021/03/17 10:35:41;;;;;;;28.77;26.88;;;8.40;60.40;;;;;;5034638;28;20201;-76
2021/03/17 10:38:08;;;;;;;26.58;24.98;;;8.40;61.20;;;;;;5035036;28;20201;-77
2021/03/17 10:40:37;;;;;;;26.40;24.77;;;8.70;61.40;;;;;;5035105;28;20251;-76
2021/03/17 10:43:09;;;;;;;27.08;25.48;;;8.80;60.10;;;;;;5034825;28;20666;-77
2021/03/17 10:45:45;;;;;;;27.35;25.48;;;8.50;60.80;;;;;;5035001;28;20204;-76
2021/03/17 10:48:12;;;;;;;25.90;24.30;;;8.50;61.40;;;;;;5035180;28;20204;-77
2021/03/17 10:50:39;;;;;;;27.15;25.55;;;8.80;59.90;;;;;;5034639;28;20197;-76
2021/03/17 10:53:16;;;;;;;27.48;25.67;;;9.00;59.00;;;;;;5035026;28;20193;-77
2021/03/17 10:55:42;;;;;;;27.13;25.40;;;9.20;59.10;;;;;;5034351;28;20197;-76
2021/03/17 10:58:11;;;;;;;26.85;25.25;;;9.50;58.40;;;;;;5034761;28;20617;-77
2021/03/17 11:00:37;;;;;;;29.08;27.40;;;9.20;58.00;;;;;;5034974;28;20193;-77
2021/03/17 11:03:21;;;;;;;26.30;24.60;;;9.00;58.30;;;;;;5034633;28;20284;-76
2021/03/17 11:05:48;;;;;;;26.25;24.65;;;9.00;59.40;;;;;;5034392;28;20197;-76
2021/03/17 11:08:14;;;;;;;25.83;24.25;;;8.80;59.50;;;;;;5034658;28;20197;-77
2021/03/17 11:11:03;;;;;;;27.83;26.00;;;8.30;60.30;;;;;;5034631;28;20212;-78
2021/03/17 11:13:42;;;;;;;27.15;25.35;;;8.00;61.60;;;;;;5034620;28;20193;-77
2021/03/17 11:16:12;;;;;;;26.25;24.92;;;7.90;62.30;;;;;;5034352;28;20201;-77
2021/03/17 11:18:45;;;;;;;25.48;23.95;;;7.90;62.10;;;;;;5034302;28;20231;-77
2021/03/17 11:21:17;;;;;;;25.63;23.92;;;7.80;63.40;;;;;;5034357;28;20201;-77
2021/03/17 11:23:44;;;;;;;26.90;25.40;;;7.70;63.50;;;;;;5034180;28;20221;-77
2021/03/17 11:26:19;;;;;;;26.25;24.40;;;7.40;65.50;;;;;;5034037;28;20630;-77
2021/03/17 11:28:47;;;;;;;26.55;24.95;;;7.40;66.00;;;;;;5034171;28;20220;-77
2021/03/17 11:31:24;;;;;;;27.10;25.40;;;7.30;67.80;;;;;;5033979;28;20231;-77
2021/03/17 11:33:50;;;;;;;24.75;23.25;;;7.20;67.40;;;;;;5034106;28;20197;-77
2021/03/17 11:36:17;;;;;;;26.63;24.88;;;7.30;67.60;;;;;;5033715;28;20204;-77
2021/03/17 11:38:43;;;;;;;26.38;24.65;;;7.20;67.80;;;;;;5033772;28;20220;-77
2021/03/17 11:41:11;;;;;;;26.75;25.02;;;7.20;67.90;;;;;;5033903;28;20204;-76
2021/03/17 11:43:37;;;;;;;27.55;25.58;;;7.30;69.00;;;;;;5033750;28;20217;-76
2021/03/17 11:46:05;;;;;;;27.73;25.95;;;7.10;70.10;;;;;;5032920;28;20622;-76
2021/03/17 11:48:31;;;;;;;26.73;24.85;;;7.00;70.70;;;;;;5033771;28;20201;-77
2021/03/17 11:51:00;;;;;;;26.65;24.92;;;6.70;72.00;;;;;;5033371;28;20201;-77
2021/03/17 11:53:27;;;;;;;26.75;25.10;;;6.40;74.20;;;;;;5033750;28;20226;-77
2021/03/17 11:55:54;;;;;;;28.58;26.55;;;6.20;75.70;;;;;;5033179;28;20234;-76
2021/03/17 11:58:21;;;;;;;26.75;24.95;;;6.00;76.50;;;;;;5033462;28;20202;-76
2021/03/17 12:00:47;;;;;;;27.30;25.38;;;5.90;78.60;;;;;;5033599;28;20196;-77
2021/03/17 12:03:15;;;;;;;26.65;24.75;;;5.90;79.90;;;;;;5033370;28;20197;-77
2021/03/17 12:05:43;;;;;;;27.83;25.73;;;5.60;80.60;;;;;;5033304;28;20198;-77
2021/03/17 12:08:10;;;;;;;27.30;25.58;;;5.40;82.60;;;;;;5033291;28;20288;-77
2021/03/17 12:10:37;;;;;;;26.10;24.20;;;5.50;83.40;;;;;;5033273;28;20304;-77
2021/03/17 12:13:03;;;;;;;27.02;24.85;;;5.60;83.10;;;;;;5033159;28;20284;-77
2021/03/17 12:15:30;;;;;;;27.75;25.65;;;5.80;82.80;;;;;;5032990;28;20532;-77
2021/03/17 12:17:57;;;;;;;27.10;24.90;;;5.80;82.90;;;;;;5033100;28;20560;-77
2021/03/17 12:20:27;;;;;;;26.50;24.50;;;5.80;83.00;;;;;;5033089;28;20583;-77
2021/03/17 12:22:54;;;;;;;28.40;26.40;;;5.70;83.30;;;;;;5032967;28;20686;-77
2021/03/17 12:25:21;;;;;;;27.60;25.60;;;5.70;83.20;;;;;;5032895;28;20214;-78
2021/03/17 12:27:48;;;;;;;26.88;24.77;;;5.60;83.40;;;;;;5032832;28;20654;-76
2021/03/17 12:30:17;;;;;;;27.10;25.20;;;5.50;84.00;;;;;;5032880;28;20728;-77
2021/03/17 12:32:44;;;;;;;26.70;24.90;;;5.10;84.70;;;;;;5033066;28;20557;-76
2021/03/17 12:35:12;;;;;;;27.00;24.98;;;5.00;86.50;;;;;;5033057;28;20195;-76
2021/03/17 12:37:41;;;;;;;26.83;24.85;;;5.00;86.60;;;;;;5032774;28;20205;-76
2021/03/17 12:40:09;;;;;;;27.88;25.77;;;4.90;86.10;;;;;;5032719;28;20224;-77
2021/03/17 12:42:36;;;;;;;26.08;23.98;;;4.90;86.60;;;;;;5032803;28;20280;-77
2021/03/17 12:45:03;;;;;;;26.35;24.40;;;4.90;87.10;;;;;;5032793;28;20224;-76
2021/03/17 12:47:30;;;;;;;27.52;25.83;;;4.90;86.70;;;;;;5032825;28;20203;-77
2021/03/17 12:49:56;;;;;;;25.45;23.73;;;4.80;86.70;;;;;;5032382;28;20217;-76
2021/03/17 12:52:23;;;;;;;25.23;23.60;;;4.80;87.00;;;;;;5032519;28;20676;-76